Osg Courageous — WDF7122 — position and weather

sailwx.info

Track history (hours):
 
Tides and Currents Weather Stations Pressure Air Temp Water Temp Dewpoint Dewpoint Depression Visibility Wind Speed Wind Dir Waves Ship Positions

Osg Courageous

Owner: OSG Ship Management, Inc, Tampa, FL. More information available from US FCC via Universal Licensing System and Coast Guard Vessel Documentation Center.

Last reported at 2016-Jul-24 03:17 UTC. Time now 2016-Jul-31 00:24 UTC.
Position N 29°56' W 080°13'.

Length 187 m; draft 7 m.

Type: Tanker. MMSI: 367481310.

Date/timePositionNaut miles runAvg speedWind from/ knotsBaromVisibWave heightAir tempDewpointWater temp
2016-Jul-24 03:17N 29°56' W 080°13'17311.7
2016-Jul-23 12:33N 27°04' W 079°55'1010.3
2016-Jul-23 11:33N 26°54' W 079°59'1110.8
2016-Jul-23 10:31N 26°43' W 079°59'1111.5
2016-Jul-23 09:33N 26°32' W 079°56'1413.6
2016-Jul-23 08:33N 26°19' W 079°57'1413.8
2016-Jul-23 07:34N 26°05' W 079°57'1414.0
2016-Jul-23 06:33N 25°51' W 079°58'  
2016-Jul-20 06:18N 29°45' W 090°01'810.2
2016-Jul-20 05:33N 29°52' W 089°59'4 4.2
2016-Jul-20 04:33N 29°56' W 089°60'7 7.5
2016-Jul-20 03:33N 29°57' W 090°08'  
2016-Jul-17 23:33N 29°56' W 090°11'6 6.0
2016-Jul-17 22:33N 29°55' W 090°04'7 6.5
2016-Jul-17 21:33N 29°55' W 089°56'4 4.0
2016-Jul-17 20:33N 29°52' W 089°59'2 2.1
2016-Jul-17 19:31N 29°50' W 089°60'0 0.0
2016-Jul-17 18:31N 29°50' W 089°60'0 0.0
2016-Jul-17 14:13N 29°50' W 089°60'0 0.0
2016-Jul-17 13:22N 29°50' W 089°60'0 0.0
2016-Jul-17 12:31N 29°50' W 089°60'0 0.0
2016-Jul-17 11:31N 29°50' W 089°60'0 0.0
2016-Jul-17 10:25N 29°50' W 089°60'0 0.0
2016-Jul-17 09:31N 29°50' W 089°60'0 0.0
2016-Jul-17 08:31N 29°50' W 089°60'0 0.0
2016-Jul-17 07:31N 29°50' W 089°60'0 0.0
2016-Jul-17 06:31N 29°50' W 089°60'0 0.0
2016-Jul-17 04:31N 29°50' W 089°60'0 0.0
2016-Jul-17 03:31N 29°50' W 089°60'0 0.0
2016-Jul-17 02:31N 29°50' W 089°60'0 0.0
2016-Jul-17 01:31N 29°50' W 089°60'0 0.0
2016-Jul-17 00:25N 29°50' W 089°60'0 0.1
2016-Jul-16 23:33N 29°50' W 089°60'  
Track history (hours):
 
Tides and Currents Weather Stations Pressure Air Temp Water Temp Dewpoint Dewpoint Depression Visibility Wind Speed Wind Dir Waves Ship Positions

Osg Courageous

Owner: OSG Ship Management, Inc, Tampa, FL. More information available from US FCC via Universal Licensing System and Coast Guard Vessel Documentation Center.

Last reported at 2016-Jul-24 03:17 UTC. Time now 2016-Jul-31 00:24 UTC.
Position N 29°56' W 080°13'.

Length 187 m; draft 7 m.

Type: Tanker. MMSI: 367481310.

Date/timePositionNaut miles runAvg speedWind from/ knotsBaromVisibWave heightAir tempDewpointWater temp
2016-Jul-24 03:17N 29°56' W 080°13'17311.7
2016-Jul-23 12:33N 27°04' W 079°55'1010.3
2016-Jul-23 11:33N 26°54' W 079°59'1110.8
2016-Jul-23 10:31N 26°43' W 079°59'1111.5
2016-Jul-23 09:33N 26°32' W 079°56'1413.6
2016-Jul-23 08:33N 26°19' W 079°57'1413.8
2016-Jul-23 07:34N 26°05' W 079°57'1414.0
2016-Jul-23 06:33N 25°51' W 079°58'  
2016-Jul-20 06:18N 29°45' W 090°01'810.2
2016-Jul-20 05:33N 29°52' W 089°59'4 4.2
2016-Jul-20 04:33N 29°56' W 089°60'7 7.5
2016-Jul-20 03:33N 29°57' W 090°08'  
2016-Jul-17 23:33N 29°56' W 090°11'6 6.0
2016-Jul-17 22:33N 29°55' W 090°04'7 6.5
2016-Jul-17 21:33N 29°55' W 089°56'4 4.0
2016-Jul-17 20:33N 29°52' W 089°59'2 2.1
2016-Jul-17 19:31N 29°50' W 089°60'0 0.0
2016-Jul-17 18:31N 29°50' W 089°60'0 0.0
2016-Jul-17 14:13N 29°50' W 089°60'0 0.0
2016-Jul-17 13:22N 29°50' W 089°60'0 0.0
2016-Jul-17 12:31N 29°50' W 089°60'0 0.0
2016-Jul-17 11:31N 29°50' W 089°60'0 0.0
2016-Jul-17 10:25N 29°50' W 089°60'0 0.0
2016-Jul-17 09:31N 29°50' W 089°60'0 0.0
2016-Jul-17 08:31N 29°50' W 089°60'0 0.0
2016-Jul-17 07:31N 29°50' W 089°60'0 0.0
2016-Jul-17 06:31N 29°50' W 089°60'0 0.0
2016-Jul-17 04:31N 29°50' W 089°60'0 0.0
2016-Jul-17 03:31N 29°50' W 089°60'0 0.0
2016-Jul-17 02:31N 29°50' W 089°60'0 0.0
2016-Jul-17 01:31N 29°50' W 089°60'0 0.0
2016-Jul-17 00:25N 29°50' W 089°60'0 0.1
2016-Jul-16 23:33N 29°50' W 089°60'  

Dump ship's entire track history